Time;durP1;ratioP1;P1;durP2;ratioP2;P2;SDS_P1;SDS_P2;PMS_P1;PMS_P2;Temp;Humidity;BMP_temperature;BMP_pressure;BME280_temperature;BME280_humidity;BME280_pressure;Samples;Min_cycle;Max_cycle;Signal;HPM_P1;HPM_P2
2023/11/14 00:00:24;;;;;;;10.50;2.83;;;;;;;;;;4900358;29;20054;-81
2023/11/14 00:03:10;;;;;;;16.48;3.00;;;;;;;;;;4898702;29;20071;-81
2023/11/14 00:05:55;;;;;;;8.27;2.58;;;;;;;;;;4896675;29;20028;-80
2023/11/14 00:08:41;;;;;;;7.15;2.67;;;;;;;;;;4895868;29;20035;-81
2023/11/14 00:11:28;;;;;;;12.35;2.83;;;;;;;;;;4899671;29;20072;-81
2023/11/14 00:14:16;;;;;;;10.15;2.30;;;;;;;;;;4919290;29;20107;-82
2023/11/14 00:17:01;;;;;;;9.98;3.00;;;;;;;;;;4900802;29;20107;-82
2023/11/14 00:19:46;;;;;;;7.80;2.17;;;;;;;;;;4900937;29;20515;-81
2023/11/14 00:22:32;;;;;;;11.20;2.72;;;;;;;;;;4903164;29;20175;-81
2023/11/14 00:25:17;;;;;;;15.15;3.35;;;;;;;;;;4900880;29;20024;-82
2023/11/14 00:28:02;;;;;;;17.00;3.47;;;;;;;;;;4902430;29;20052;-83
2023/11/14 00:30:48;;;;;;;9.38;2.58;;;;;;;;;;4888544;29;20028;-83
2023/11/14 00:33:34;;;;;;;13.20;3.03;;;;;;;;;;4901064;29;20028;-83
2023/11/14 00:36:19;;;;;;;9.90;3.03;;;;;;;;;;4902047;29;20487;-84
2023/11/14 00:39:04;;;;;;;8.80;2.78;;;;;;;;;;4906770;29;20593;-82
2023/11/14 00:41:53;;;;;;;9.68;2.17;;;;;;;;;;4893286;29;20032;-83
2023/11/14 00:44:38;;;;;;;9.57;2.97;;;;;;;;;;4902498;29;20056;-83
2023/11/14 00:47:24;;;;;;;13.02;3.20;;;;;;;;;;4906834;29;20449;-81
2023/11/14 00:50:09;;;;;;;9.85;2.08;;;;;;;;;;4897445;29;20082;-82
2023/11/14 00:52:54;;;;;;;8.40;2.47;;;;;;;;;;4903519;29;20024;-81
2023/11/14 00:55:40;;;;;;;9.02;2.22;;;;;;;;;;4902316;29;20051;-81
2023/11/14 00:58:25;;;;;;;9.07;2.10;;;;;;;;;;4900176;29;20028;-81
2023/11/14 01:01:10;;;;;;;8.77;2.42;;;;;;;;;;4900455;29;20487;-81
2023/11/14 01:03:56;;;;;;;6.63;2.60;;;;;;;;;;4897110;29;20378;-81
2023/11/14 01:06:41;;;;;;;9.02;2.30;;;;;;;;;;4899038;29;20391;-81
2023/11/14 01:09:26;;;;;;;11.50;2.90;;;;;;;;;;4902560;29;20046;-81
2023/11/14 01:12:11;;;;;;;8.85;2.70;;;;;;;;;;4889311;29;20020;-81
2023/11/14 01:14:57;;;;;;;14.63;2.55;;;;;;;;;;4895173;29;20525;-82
2023/11/14 01:17:42;;;;;;;12.07;2.65;;;;;;;;;;4904342;29;20036;-82
2023/11/14 01:20:27;;;;;;;11.57;2.35;;;;;;;;;;4898128;29;20115;-82
2023/11/14 01:23:13;;;;;;;10.77;3.40;;;;;;;;;;4903804;29;20099;-82
2023/11/14 01:25:59;;;;;;;11.40;2.53;;;;;;;;;;4901747;29;20036;-82
2023/11/14 01:28:44;;;;;;;8.68;2.42;;;;;;;;;;4901885;29;20072;-82
2023/11/14 01:31:29;;;;;;;11.35;2.45;;;;;;;;;;4901333;29;20083;-81
2023/11/14 01:34:15;;;;;;;13.25;2.97;;;;;;;;;;4882142;29;20039;-82
2023/11/14 01:37:00;;;;;;;12.48;3.05;;;;;;;;;;4904618;29;20036;-80
2023/11/14 01:39:45;;;;;;;9.27;2.08;;;;;;;;;;4901896;29;20032;-81
2023/11/14 01:42:31;;;;;;;13.60;2.42;;;;;;;;;;4904564;29;20082;-82
2023/11/14 01:45:16;;;;;;;9.02;2.70;;;;;;;;;;4888917;29;20361;-83
2023/11/14 01:48:01;;;;;;;7.68;2.75;;;;;;;;;;4903107;29;20035;-82
2023/11/14 01:50:49;;;;;;;10.10;2.50;;;;;;;;;;4902225;29;20052;-82
2023/11/14 01:53:35;;;;;;;12.25;2.05;;;;;;;;;;4899989;29;20035;-81
2023/11/14 01:56:20;;;;;;;7.20;2.42;;;;;;;;;;4903921;29;20032;-81
2023/11/14 01:59:06;;;;;;;7.55;2.63;;;;;;;;;;4902897;29;20475;-83
2023/11/14 02:01:52;;;;;;;13.82;2.38;;;;;;;;;;4885651;29;20027;-82
2023/11/14 02:04:37;;;;;;;10.93;2.88;;;;;;;;;;4903983;29;20096;-82
2023/11/14 02:07:23;;;;;;;12.13;3.10;;;;;;;;;;4898338;29;20032;-83
2023/11/14 02:10:08;;;;;;;8.55;2.38;;;;;;;;;;4899017;29;20032;-83
2023/11/14 02:12:54;;;;;;;10.50;2.70;;;;;;;;;;4898945;29;20074;-83
2023/11/14 02:15:39;;;;;;;8.63;2.38;;;;;;;;;;4896466;29;20023;-83
2023/11/14 02:18:25;;;;;;;7.68;2.35;;;;;;;;;;4901326;29;20111;-82
2023/11/14 02:21:13;;;;;;;7.80;2.33;;;;;;;;;;4886587;29;20024;-82
2023/11/14 02:23:58;;;;;;;17.25;2.42;;;;;;;;;;4903813;29;20044;-83
2023/11/14 02:26:48;;;;;;;9.23;3.20;;;;;;;;;;4902084;29;20027;-83
2023/11/14 02:29:35;;;;;;;13.90;3.53;;;;;;;;;;4898517;29;20031;-83
2023/11/14 02:32:21;;;;;;;9.23;2.45;;;;;;;;;;4903505;29;20050;-83
2023/11/14 02:35:07;;;;;;;9.40;2.22;;;;;;;;;;4900530;29;20020;-81
2023/11/14 02:37:53;;;;;;;7.07;2.33;;;;;;;;;;4900091;29;20028;-82
2023/11/14 02:40:38;;;;;;;13.68;3.08;;;;;;;;;;4904156;29;20039;-82
2023/11/14 02:43:23;;;;;;;11.25;2.85;;;;;;;;;;4903340;29;20028;-82
2023/11/14 02:46:08;;;;;;;12.23;2.33;;;;;;;;;;4900388;29;20686;-82
2023/11/14 02:48:54;;;;;;;7.15;3.38;;;;;;;;;;4898696;29;20055;-81
2023/11/14 02:51:39;;;;;;;13.40;3.17;;;;;;;;;;4902577;29;20052;-83
2023/11/14 02:54:24;;;;;;;8.43;2.13;;;;;;;;;;4901269;29;20024;-83
2023/11/14 02:57:12;;;;;;;8.20;2.15;;;;;;;;;;4903598;29;20024;-83
2023/11/14 02:59:57;;;;;;;12.75;2.75;;;;;;;;;;4901243;29;20028;-81
2023/11/14 03:02:43;;;;;;;7.88;2.47;;;;;;;;;;4906008;29;20044;-82
2023/11/14 03:05:28;;;;;;;9.88;3.45;;;;;;;;;;4897210;29;20031;-82
2023/11/14 03:08:14;;;;;;;8.13;2.78;;;;;;;;;;4900893;29;20020;-83
2023/11/14 03:11:01;;;;;;;14.65;2.70;;;;;;;;;;4884648;29;20032;-83
2023/11/14 03:13:47;;;;;;;14.73;3.35;;;;;;;;;;4904415;29;20091;-82
2023/11/14 03:16:32;;;;;;;9.18;2.38;;;;;;;;;;4902067;29;20039;-82
2023/11/14 03:19:18;;;;;;;6.60;2.22;;;;;;;;;;4906512;29;20032;-83
2023/11/14 03:22:03;;;;;;;8.40;2.05;;;;;;;;;;4907102;29;20028;-82
2023/11/14 03:24:48;;;;;;;8.20;2.20;;;;;;;;;;4901639;29;20058;-82
2023/11/14 03:27:33;;;;;;;8.95;2.00;;;;;;;;;;4901908;29;20136;-81
2023/11/14 03:30:19;;;;;;;6.38;2.08;;;;;;;;;;4903176;29;20117;-83
2023/11/14 03:33:04;;;;;;;9.45;2.80;;;;;;;;;;4904373;29;20383;-82
2023/11/14 03:35:49;;;;;;;10.27;2.00;;;;;;;;;;4905049;29;20034;-82
2023/11/14 03:38:34;;;;;;;12.43;3.25;;;;;;;;;;4907109;29;20017;-82
2023/11/14 03:41:20;;;;;;;9.43;2.70;;;;;;;;;;4905335;29;20378;-82
2023/11/14 03:44:42;;;;;;;9.05;2.13;;;;;;;;;;4903666;29;20107;-82
2023/11/14 03:47:27;;;;;;;6.53;2.10;;;;;;;;;;4909254;29;20051;-82
2023/11/14 03:50:13;;;;;;;8.30;2.47;;;;;;;;;;4907556;29;20052;-83
2023/11/14 03:52:58;;;;;;;12.55;3.25;;;;;;;;;;4905663;29;20028;-81
2023/11/14 03:55:43;;;;;;;9.77;2.50;;;;;;;;;;4892313;29;20052;-81
2023/11/14 03:58:28;;;;;;;10.57;2.10;;;;;;;;;;4904569;29;20044;-82
2023/11/14 04:01:13;;;;;;;13.40;2.65;;;;;;;;;;4900027;29;20043;-81
2023/11/14 04:03:59;;;;;;;9.95;2.80;;;;;;;;;;4914016;29;20027;-80
2023/11/14 04:06:44;;;;;;;9.18;2.00;;;;;;;;;;4898545;29;20472;-80
2023/11/14 04:09:29;;;;;;;10.88;3.05;;;;;;;;;;4902405;29;20064;-81
2023/11/14 04:12:14;;;;;;;10.95;2.22;;;;;;;;;;4906448;29;20034;-81
2023/11/14 04:15:00;;;;;;;6.72;1.90;;;;;;;;;;4903176;29;20122;-83
2023/11/14 04:17:45;;;;;;;12.68;2.28;;;;;;;;;;4901772;29;20023;-83
2023/11/14 04:20:30;;;;;;;9.98;2.70;;;;;;;;;;4906668;29;20043;-81
2023/11/14 04:23:15;;;;;;;11.55;2.95;;;;;;;;;;4900870;29;20043;-83
2023/11/14 04:26:01;;;;;;;10.15;3.28;;;;;;;;;;4901929;29;20047;-82
2023/11/14 04:28:46;;;;;;;9.82;2.30;;;;;;;;;;4904308;29;20114;-82
2023/11/14 04:31:31;;;;;;;8.13;2.22;;;;;;;;;;4898951;29;20019;-81
2023/11/14 04:34:16;;;;;;;7.88;2.20;;;;;;;;;;4904437;29;20032;-81
2023/11/14 04:37:02;;;;;;;6.68;2.05;;;;;;;;;;4904826;29;20495;-81
2023/11/14 04:39:47;;;;;;;9.07;2.33;;;;;;;;;;4903717;29;20086;-81
2023/11/14 04:42:32;;;;;;;9.75;2.70;;;;;;;;;;4905697;29;20054;-80
2023/11/14 04:45:18;;;;;;;9.25;2.67;;;;;;;;;;4904443;29;20032;-81
2023/11/14 04:48:03;;;;;;;10.93;2.40;;;;;;;;;;4897160;29;20541;-81
2023/11/14 04:50:49;;;;;;;8.77;2.85;;;;;;;;;;4902039;29;20131;-82
2023/11/14 04:53:34;;;;;;;12.27;2.00;;;;;;;;;;4907812;29;20114;-81
2023/11/14 04:56:19;;;;;;;9.13;2.22;;;;;;;;;;4906171;29;20068;-81
2023/11/14 04:59:07;;;;;;;8.80;2.28;;;;;;;;;;4905651;29;20044;-81
2023/11/14 05:01:52;;;;;;;8.20;2.53;;;;;;;;;;4902300;29;20032;-81
2023/11/14 05:04:37;;;;;;;14.15;2.25;;;;;;;;;;4903646;29;20040;-80
2023/11/14 05:07:25;;;;;;;8.50;2.40;;;;;;;;;;4900169;29;20044;-82
2023/11/14 05:10:11;;;;;;;9.27;2.42;;;;;;;;;;4903354;29;20055;-81
2023/11/14 05:12:56;;;;;;;10.27;2.10;;;;;;;;;;4901406;29;20026;-81
2023/11/14 05:15:41;;;;;;;14.68;2.60;;;;;;;;;;4903895;29;20048;-81
2023/11/14 05:18:27;;;;;;;8.50;1.98;;;;;;;;;;4907296;29;20036;-80
2023/11/14 05:21:13;;;;;;;8.32;2.13;;;;;;;;;;4892219;29;20111;-80
2023/11/14 05:23:58;;;;;;;6.05;1.90;;;;;;;;;;4917159;29;20488;-79
2023/11/14 05:26:46;;;;;;;8.27;2.55;;;;;;;;;;4905473;29;20034;-80
2023/11/14 05:29:31;;;;;;;7.60;2.33;;;;;;;;;;4905977;29;20035;-82
2023/11/14 05:32:16;;;;;;;16.77;2.80;;;;;;;;;;4907126;29;20086;-82
2023/11/14 05:35:02;;;;;;;8.75;2.28;;;;;;;;;;4904822;29;20079;-82
2023/11/14 05:37:47;;;;;;;7.85;1.90;;;;;;;;;;4905881;29;20059;-81
2023/11/14 05:40:32;;;;;;;11.13;2.90;;;;;;;;;;4892728;29;20028;-83
2023/11/14 05:43:18;;;;;;;7.35;2.10;;;;;;;;;;4888352;29;20116;-82
2023/11/14 05:46:03;;;;;;;9.52;2.75;;;;;;;;;;4891104;29;20032;-83
2023/11/14 05:48:48;;;;;;;5.18;1.98;;;;;;;;;;4898222;29;20067;-80
2023/11/14 05:51:34;;;;;;;12.68;2.47;;;;;;;;;;4892491;29;20067;-81
2023/11/14 05:54:19;;;;;;;9.00;1.90;;;;;;;;;;4906107;29;20023;-81
2023/11/14 05:57:05;;;;;;;4.65;1.55;;;;;;;;;;4889766;29;20079;-80
2023/11/14 05:59:51;;;;;;;6.55;2.38;;;;;;;;;;4902492;29;21623;-80
2023/11/14 06:02:38;;;;;;;10.23;3.80;;;;;;;;;;4901781;29;20087;-80
2023/11/14 06:05:24;;;;;;;9.02;2.60;;;;;;;;;;4910333;29;20493;-79
2023/11/14 06:08:09;;;;;;;13.57;2.30;;;;;;;;;;4908798;29;20036;-79
2023/11/14 06:10:54;;;;;;;4.88;2.10;;;;;;;;;;4900657;29;20027;-80
2023/11/14 06:13:39;;;;;;;5.03;2.05;;;;;;;;;;4899750;29;20086;-81
2023/11/14 06:16:25;;;;;;;6.72;2.47;;;;;;;;;;4900530;29;20167;-80
2023/11/14 06:19:11;;;;;;;5.95;2.10;;;;;;;;;;4902689;29;20028;-84
2023/11/14 06:21:57;;;;;;;9.02;1.90;;;;;;;;;;4910554;29;20080;-82
2023/11/14 06:24:42;;;;;;;7.18;2.40;;;;;;;;;;4901972;29;20406;-83
2023/11/14 06:27:27;;;;;;;7.30;2.55;;;;;;;;;;4908888;29;20040;-84
2023/11/14 06:30:13;;;;;;;10.38;3.47;;;;;;;;;;4901407;29;21873;-77
2023/11/14 06:32:58;;;;;;;5.75;2.78;;;;;;;;;;4908194;29;20111;-77
2023/11/14 06:35:45;;;;;;;9.07;3.10;;;;;;;;;;4910332;29;20036;-82
2023/11/14 06:38:30;;;;;;;6.85;2.47;;;;;;;;;;4898189;29;20099;-83
2023/11/14 06:41:16;;;;;;;11.70;2.83;;;;;;;;;;4905418;29;20024;-82
2023/11/14 06:44:01;;;;;;;6.57;2.15;;;;;;;;;;4901622;29;20028;-82
2023/11/14 06:46:46;;;;;;;6.63;2.25;;;;;;;;;;4887369;29;20039;-83
2023/11/14 06:49:31;;;;;;;6.45;2.33;;;;;;;;;;4911500;29;20056;-83
2023/11/14 06:52:17;;;;;;;4.55;1.95;;;;;;;;;;4917725;29;20050;-83
2023/11/14 06:55:02;;;;;;;8.93;2.50;;;;;;;;;;4908162;29;20040;-84
2023/11/14 06:57:48;;;;;;;4.53;2.22;;;;;;;;;;4904039;29;20649;-83
2023/11/14 07:00:33;;;;;;;5.18;2.13;;;;;;;;;;4917129;29;20479;-83
2023/11/14 07:03:18;;;;;;;10.18;2.53;;;;;;;;;;4905368;29;20032;-82
2023/11/14 07:06:04;;;;;;;8.70;2.05;;;;;;;;;;4901512;29;20036;-82
2023/11/14 07:08:49;;;;;;;10.85;2.50;;;;;;;;;;4905241;29;20027;-80
2023/11/14 07:11:35;;;;;;;10.48;2.75;;;;;;;;;;4900907;29;21236;-81
2023/11/14 07:14:22;;;;;;;7.25;2.08;;;;;;;;;;4900346;29;20070;-80
2023/11/14 07:17:09;;;;;;;6.68;2.33;;;;;;;;;;4900455;29;20513;-80
2023/11/14 07:19:55;;;;;;;7.32;2.45;;;;;;;;;;4898294;29;20608;-80
2023/11/14 07:22:40;;;;;;;8.18;2.80;;;;;;;;;;4904612;29;20087;-81
2023/11/14 07:25:25;;;;;;;8.00;3.03;;;;;;;;;;4902899;29;20051;-80
2023/11/14 07:28:12;;;;;;;7.88;2.30;;;;;;;;;;4886737;29;20432;-80
2023/11/14 07:30:57;;;;;;;8.30;2.38;;;;;;;;;;4899594;29;20028;-80
2023/11/14 07:33:42;;;;;;;7.55;2.22;;;;;;;;;;4899753;29;20036;-81
2023/11/14 07:36:27;;;;;;;8.13;1.80;;;;;;;;;;4900348;29;20038;-81
2023/11/14 07:39:12;;;;;;;11.07;2.55;;;;;;;;;;4904259;29;20044;-81
2023/11/14 07:41:58;;;;;;;7.82;2.97;;;;;;;;;;4899113;29;20051;-81
2023/11/14 07:44:43;;;;;;;6.25;2.40;;;;;;;;;;4898618;29;20845;-80
2023/11/14 07:47:30;;;;;;;9.93;2.03;;;;;;;;;;4902432;29;20091;-81
2023/11/14 07:50:16;;;;;;;5.70;2.15;;;;;;;;;;4903879;29;20048;-79
2023/11/14 07:53:02;;;;;;;6.82;1.67;;;;;;;;;;4900743;29;20028;-82
2023/11/14 07:55:47;;;;;;;3.38;1.88;;;;;;;;;;4902822;29;20298;-80
2023/11/14 07:58:33;;;;;;;8.40;2.13;;;;;;;;;;4886194;29;20032;-82
2023/11/14 08:01:18;;;;;;;6.68;1.92;;;;;;;;;;4896389;29;20489;-82
2023/11/14 08:04:05;;;;;;;3.22;1.58;;;;;;;;;;4897209;29;20496;-81
2023/11/14 08:06:51;;;;;;;6.60;2.00;;;;;;;;;;4899375;29;20170;-82
2023/11/14 08:09:36;;;;;;;5.97;1.60;;;;;;;;;;4896182;29;20044;-81
2023/11/14 08:12:21;;;;;;;8.88;2.05;;;;;;;;;;4898850;29;20043;-82
2023/11/14 08:15:07;;;;;;;8.73;1.58;;;;;;;;;;4901654;29;20027;-82
2023/11/14 08:17:53;;;;;;;3.22;1.50;;;;;;;;;;4893533;29;20044;-81
2023/11/14 08:20:38;;;;;;;4.60;1.80;;;;;;;;;;4903219;29;20036;-81
2023/11/14 08:23:24;;;;;;;5.72;1.52;;;;;;;;;;4901259;29;20113;-81
2023/11/14 08:26:09;;;;;;;4.55;1.27;;;;;;;;;;4896651;29;20036;-82
2023/11/14 08:28:54;;;;;;;8.27;2.28;;;;;;;;;;4895474;29;20099;-82
2023/11/14 08:31:40;;;;;;;9.93;1.80;;;;;;;;;;4901332;29;20064;-81
2023/11/14 08:34:25;;;;;;;6.75;2.65;;;;;;;;;;4901043;29;20032;-82
2023/11/14 08:37:10;;;;;;;3.83;1.23;;;;;;;;;;4905794;29;20425;-82
2023/11/14 08:39:55;;;;;;;8.55;1.83;;;;;;;;;;4906931;29;20032;-81
2023/11/14 08:42:41;;;;;;;2.33;1.20;;;;;;;;;;4905578;29;20036;-80
2023/11/14 08:45:28;;;;;;;5.28;1.25;;;;;;;;;;4904540;29;20396;-82
2023/11/14 08:48:13;;;;;;;3.13;1.20;;;;;;;;;;4898042;29;20031;-79
2023/11/14 08:50:59;;;;;;;2.67;1.25;;;;;;;;;;4903153;29;20121;-79
2023/11/14 08:53:44;;;;;;;3.47;1.30;;;;;;;;;;4902526;29;20063;-78
2023/11/14 08:56:29;;;;;;;1.95;0.95;;;;;;;;;;4876709;29;20036;-79
2023/11/14 08:59:33;;;;;;;8.55;1.30;;;;;;;;;;4906304;29;20028;-80
2023/11/14 09:02:18;;;;;;;3.80;1.10;;;;;;;;;;4903169;29;20035;-80
2023/11/14 09:05:04;;;;;;;7.15;1.85;;;;;;;;;;4901574;29;20044;-79
2023/11/14 09:07:49;;;;;;;2.58;0.93;;;;;;;;;;4905375;29;20047;-81
2023/11/14 09:10:34;;;;;;;4.65;1.08;;;;;;;;;;4903065;29;20442;-82
2023/11/14 09:13:19;;;;;;;5.32;1.63;;;;;;;;;;4896020;29;20028;-80
2023/11/14 09:16:09;;;;;;;3.10;1.45;;;;;;;;;;4896421;29;20403;-80
2023/11/14 09:18:54;;;;;;;3.17;0.80;;;;;;;;;;4906322;29;20079;-80
2023/11/14 09:21:39;;;;;;;5.40;1.10;;;;;;;;;;4896250;29;20260;-79
2023/11/14 09:24:25;;;;;;;4.93;1.42;;;;;;;;;;4878169;29;20039;-80
2023/11/14 09:27:11;;;;;;;3.33;1.30;;;;;;;;;;4900423;29;20024;-80
2023/11/14 09:29:56;;;;;;;3.95;1.30;;;;;;;;;;4904648;29;20543;-81
2023/11/14 09:32:42;;;;;;;5.38;1.83;;;;;;;;;;4899990;29;20024;-79
2023/11/14 09:35:27;;;;;;;2.22;1.40;;;;;;;;;;4899958;29;20028;-81
2023/11/14 09:38:12;;;;;;;3.20;1.15;;;;;;;;;;4902459;29;20075;-79
2023/11/14 09:40:59;;;;;;;3.47;1.40;;;;;;;;;;4904532;29;20034;-80
2023/11/14 09:43:45;;;;;;;4.60;1.10;;;;;;;;;;4900816;29;20020;-80
2023/11/14 09:46:32;;;;;;;4.43;1.35;;;;;;;;;;4898732;29;20309;-81
2023/11/14 09:49:17;;;;;;;16.17;1.67;;;;;;;;;;4896646;29;20047;-81
2023/11/14 09:52:03;;;;;;;7.03;1.48;;;;;;;;;;4890720;29;20419;-80
2023/11/14 09:54:48;;;;;;;7.15;1.90;;;;;;;;;;4901034;29;20028;-80
2023/11/14 09:57:34;;;;;;;3.60;1.23;;;;;;;;;;4892302;29;20035;-80
2023/11/14 10:00:19;;;;;;;4.28;1.67;;;;;;;;;;4906999;29;20060;-81
2023/11/14 10:03:04;;;;;;;6.63;1.75;;;;;;;;;;4904296;29;20521;-84
2023/11/14 10:05:49;;;;;;;12.77;2.03;;;;;;;;;;4897449;29;20068;-84
2023/11/14 10:08:36;;;;;;;7.20;1.65;;;;;;;;;;4900627;29;20091;-85
2023/11/14 10:11:21;;;;;;;2.92;1.13;;;;;;;;;;4885761;29;20051;-83
2023/11/14 10:14:07;;;;;;;3.33;1.30;;;;;;;;;;4904118;29;20031;-85
2023/11/14 10:16:56;;;;;;;3.17;1.40;;;;;;;;;;4899888;29;20431;-83
2023/11/14 10:20:00;;;;;;;4.85;1.23;;;;;;;;;;4897914;29;20035;-82
2023/11/14 10:22:46;;;;;;;10.30;1.80;;;;;;;;;;4901967;29;20507;-84
2023/11/14 10:25:32;;;;;;;3.33;0.95;;;;;;;;;;4906446;29;20300;-83
2023/11/14 10:28:17;;;;;;;3.75;1.65;;;;;;;;;;4906103;29;20020;-83
2023/11/14 10:31:03;;;;;;;4.18;1.77;;;;;;;;;;4894025;29;20028;-85
2023/11/14 10:33:48;;;;;;;6.88;1.95;;;;;;;;;;4901407;29;20032;-85
2023/11/14 10:36:49;;;;;;;4.63;1.45;;;;;;;;;;4892899;29;20294;-83
2023/11/14 10:39:50;;;;;;;5.95;1.80;;;;;;;;;;4899771;29;20052;-82
2023/11/14 10:42:36;;;;;;;3.75;1.67;;;;;;;;;;4901375;29;20090;-82
2023/11/14 10:45:21;;;;;;;2.65;1.50;;;;;;;;;;4902257;29;20032;-84
2023/11/14 10:48:06;;;;;;;5.25;1.50;;;;;;;;;;4904636;29;20644;-82
2023/11/14 10:50:52;;;;;;;2.90;1.10;;;;;;;;;;4902406;29;20147;-82
2023/11/14 10:53:38;;;;;;;4.05;1.48;;;;;;;;;;4899270;29;20096;-83
2023/11/14 10:56:24;;;;;;;4.03;1.50;;;;;;;;;;4881168;29;20458;-83
2023/11/14 10:59:10;;;;;;;1.92;1.00;;;;;;;;;;4904565;29;20016;-82
2023/11/14 11:01:55;;;;;;;3.55;1.10;;;;;;;;;;4877998;29;20068;-80
2023/11/14 11:04:41;;;;;;;6.30;1.55;;;;;;;;;;4870467;29;20031;-81
2023/11/14 11:07:28;;;;;;;4.82;2.00;;;;;;;;;;4886662;29;20071;-82
2023/11/14 11:10:16;;;;;;;3.60;1.33;;;;;;;;;;4903079;29;20050;-82
2023/11/14 11:13:08;;;;;;;3.38;1.10;;;;;;;;;;4893136;29;20110;-82
2023/11/14 11:15:59;;;;;;;3.67;1.30;;;;;;;;;;4905469;29;20119;-82
2023/11/14 11:18:45;;;;;;;2.78;1.50;;;;;;;;;;4903620;29;20109;-83
2023/11/14 11:21:31;;;;;;;2.80;1.50;;;;;;;;;;4909320;29;20035;-82
2023/11/14 11:24:16;;;;;;;5.45;1.45;;;;;;;;;;4902898;29;20463;-84
2023/11/14 11:27:15;;;;;;;4.32;1.13;;;;;;;;;;4899199;29;20035;-80
2023/11/14 11:30:00;;;;;;;3.13;1.10;;;;;;;;;;4912947;29;20032;-83
2023/11/14 11:32:48;;;;;;;7.15;1.45;;;;;;;;;;4903236;29;20036;-89
2023/11/14 11:35:36;;;;;;;3.92;1.40;;;;;;;;;;4902511;29;20036;-85
2023/11/14 11:38:25;;;;;;;6.43;1.48;;;;;;;;;;4898605;29;20511;-86
2023/11/14 11:41:11;;;;;;;5.03;1.48;;;;;;;;;;4901876;29;20476;-88
2023/11/14 11:44:13;;;;;;;4.15;1.20;;;;;;;;;;4899333;29;20451;-85
2023/11/14 11:46:58;;;;;;;6.20;1.52;;;;;;;;;;4902790;29;20032;-87
2023/11/14 11:49:44;;;;;;;6.95;1.25;;;;;;;;;;4901826;29;20083;-87
2023/11/14 11:52:29;;;;;;;4.82;1.25;;;;;;;;;;4900687;29;20042;-85
2023/11/14 11:55:15;;;;;;;3.97;1.27;;;;;;;;;;4904232;29;20115;-84
2023/11/14 11:58:02;;;;;;;3.83;1.55;;;;;;;;;;4905721;29;20450;-86
2023/11/14 12:00:47;;;;;;;6.60;1.55;;;;;;;;;;4904116;29;20047;-83
2023/11/14 12:03:32;;;;;;;3.60;1.55;;;;;;;;;;4905944;29;20095;-83
2023/11/14 12:06:19;;;;;;;5.25;1.83;;;;;;;;;;4900207;29;20068;-81
2023/11/14 12:09:06;;;;;;;6.30;1.70;;;;;;;;;;4906160;29;20036;-82
2023/11/14 12:11:52;;;;;;;9.45;1.75;;;;;;;;;;4906719;29;20474;-83
2023/11/14 12:14:37;;;;;;;5.82;1.52;;;;;;;;;;4890144;29;20028;-80
2023/11/14 12:17:22;;;;;;;2.42;1.20;;;;;;;;;;4908427;29;20032;-81
2023/11/14 12:20:09;;;;;;;6.20;1.70;;;;;;;;;;4906932;29;20080;-81
2023/11/14 12:22:55;;;;;;;4.97;1.52;;;;;;;;;;4907212;29;20036;-83
2023/11/14 12:25:40;;;;;;;9.15;1.42;;;;;;;;;;4905995;29;20035;-79
2023/11/14 12:28:25;;;;;;;2.65;1.13;;;;;;;;;;4894097;29;20039;-80
2023/11/14 12:31:13;;;;;;;3.30;1.10;;;;;;;;;;4909260;29;20032;-81
2023/11/14 12:34:00;;;;;;;6.05;1.50;;;;;;;;;;4907188;29;20460;-81
2023/11/14 12:36:45;;;;;;;3.67;1.42;;;;;;;;;;4903209;29;20471;-81
2023/11/14 12:39:30;;;;;;;4.88;1.65;;;;;;;;;;4888772;29;20034;-81
2023/11/14 12:42:20;;;;;;;3.70;1.38;;;;;;;;;;4891389;29;20025;-79
2023/11/14 12:45:08;;;;;;;5.40;1.85;;;;;;;;;;4907557;29;20111;-80
2023/11/14 12:47:55;;;;;;;4.68;1.45;;;;;;;;;;4905172;29;20028;-82
2023/11/14 12:50:40;;;;;;;3.95;1.48;;;;;;;;;;4907375;29;20519;-81
2023/11/14 12:53:31;;;;;;;4.65;1.42;;;;;;;;;;4916735;29;20088;-81
2023/11/14 12:56:17;;;;;;;3.83;1.70;;;;;;;;;;4906634;29;20028;-78
2023/11/14 12:59:07;;;;;;;3.28;1.52;;;;;;;;;;4904571;29;20043;-79
2023/11/14 13:01:52;;;;;;;5.75;1.80;;;;;;;;;;4904830;29;20071;-78
2023/11/14 13:04:38;;;;;;;3.85;1.35;;;;;;;;;;4903694;29;20095;-79
2023/11/14 13:07:23;;;;;;;5.00;2.00;;;;;;;;;;4887402;29;20031;-79
2023/11/14 13:10:12;;;;;;;8.82;2.17;;;;;;;;;;4904315;29;20060;-81
2023/11/14 13:12:57;;;;;;;4.75;1.42;;;;;;;;;;4896923;29;20108;-84
2023/11/14 13:15:43;;;;;;;4.85;2.03;;;;;;;;;;4885938;29;20674;-84
2023/11/14 13:18:28;;;;;;;4.53;1.80;;;;;;;;;;4891536;29;20032;-83
2023/11/14 13:21:16;;;;;;;5.97;1.40;;;;;;;;;;4885266;29;20511;-83
2023/11/14 13:24:05;;;;;;;6.07;2.30;;;;;;;;;;4901776;29;20067;-82
2023/11/14 13:26:50;;;;;;;6.07;1.60;;;;;;;;;;4905263;29;20306;-83
2023/11/14 13:29:35;;;;;;;7.05;1.83;;;;;;;;;;4906372;29;20036;-80
2023/11/14 13:32:20;;;;;;;4.57;1.30;;;;;;;;;;4906779;29;20363;-80
2023/11/14 13:35:06;;;;;;;3.80;1.52;;;;;;;;;;4903334;29;20055;-79
2023/11/14 13:37:52;;;;;;;3.92;1.25;;;;;;;;;;4904672;29;20028;-79
2023/11/14 13:40:38;;;;;;;8.05;2.08;;;;;;;;;;4906892;29;20024;-82
2023/11/14 13:43:23;;;;;;;4.90;1.42;;;;;;;;;;4905653;29;20040;-82
2023/11/14 13:46:10;;;;;;;6.68;1.73;;;;;;;;;;4904819;29;20050;-81
2023/11/14 13:48:55;;;;;;;6.72;1.27;;;;;;;;;;4889565;29;20036;-81
2023/11/14 13:51:40;;;;;;;7.22;1.60;;;;;;;;;;4886326;29;20076;-82
2023/11/14 13:54:26;;;;;;;5.18;1.67;;;;;;;;;;4897011;29;20549;-81
2023/11/14 13:57:15;;;;;;;4.88;1.85;;;;;;;;;;4903162;29;20043;-82
2023/11/14 14:00:01;;;;;;;4.25;1.52;;;;;;;;;;4900721;29;20375;-80
2023/11/14 14:02:46;;;;;;;6.50;1.38;;;;;;;;;;4900378;29;20501;-80
2023/11/14 14:05:31;;;;;;;20.20;2.30;;;;;;;;;;4882347;29;20515;-80
2023/11/14 14:08:16;;;;;;;3.78;1.52;;;;;;;;;;4888200;29;20114;-82
2023/11/14 14:11:04;;;;;;;4.47;1.83;;;;;;;;;;4905461;29;20032;-82
2023/11/14 14:13:49;;;;;;;4.00;1.65;;;;;;;;;;4903760;29;20030;-79
2023/11/14 14:16:34;;;;;;;4.93;2.38;;;;;;;;;;4905730;29;20489;-81
2023/11/14 14:19:19;;;;;;;4.90;1.50;;;;;;;;;;4904956;29;20076;-80
2023/11/14 14:22:05;;;;;;;4.05;1.30;;;;;;;;;;4904696;29;20111;-79
2023/11/14 14:24:50;;;;;;;7.88;2.10;;;;;;;;;;4899476;29;20060;-80
2023/11/14 14:27:36;;;;;;;8.77;2.20;;;;;;;;;;4905145;29;20028;-81
2023/11/14 14:30:22;;;;;;;4.85;1.58;;;;;;;;;;4905536;29;20042;-80
2023/11/14 14:33:07;;;;;;;5.95;1.95;;;;;;;;;;4912100;29;20050;-81
2023/11/14 14:35:52;;;;;;;4.32;1.30;;;;;;;;;;4916780;29;20039;-81
2023/11/14 14:38:37;;;;;;;4.85;1.75;;;;;;;;;;4893376;29;20032;-80
2023/11/14 14:41:23;;;;;;;6.32;1.73;;;;;;;;;;4888356;29;20480;-80
2023/11/14 14:44:08;;;;;;;7.57;1.65;;;;;;;;;;4901221;29;20088;-80
2023/11/14 14:46:53;;;;;;;4.30;1.35;;;;;;;;;;4892018;29;20028;-80
2023/11/14 14:49:38;;;;;;;4.38;1.40;;;;;;;;;;4904639;29;20044;-80
2023/11/14 14:52:24;;;;;;;8.18;1.65;;;;;;;;;;4906424;29;20467;-79
2023/11/14 14:55:10;;;;;;;5.78;1.58;;;;;;;;;;4904996;29;20032;-82
2023/11/14 14:57:58;;;;;;;3.17;1.40;;;;;;;;;;4904084;29;20602;-79
2023/11/14 15:00:43;;;;;;;2.90;1.42;;;;;;;;;;4904094;29;20395;-79
2023/11/14 15:03:28;;;;;;;6.13;1.65;;;;;;;;;;4904472;29;20032;-80
2023/11/14 15:06:14;;;;;;;5.40;1.50;;;;;;;;;;4905431;29;20035;-80
2023/11/14 15:08:59;;;;;;;3.72;1.10;;;;;;;;;;4899793;29;20024;-80
2023/11/14 15:11:44;;;;;;;5.30;1.75;;;;;;;;;;4902047;29;20036;-78
2023/11/14 15:14:33;;;;;;;8.85;1.42;;;;;;;;;;4899234;29;20036;-80
2023/11/14 15:17:18;;;;;;;4.78;1.75;;;;;;;;;;4901137;29;20065;-79
2023/11/14 15:20:07;;;;;;;4.32;1.52;;;;;;;;;;4901570;29;20059;-81
2023/11/14 15:22:52;;;;;;;3.30;1.63;;;;;;;;;;4904786;29;20039;-79
2023/11/14 15:25:38;;;;;;;4.95;1.20;;;;;;;;;;4903646;29;20272;-80
2023/11/14 15:28:24;;;;;;;3.78;1.35;;;;;;;;;;4904679;29;20059;-81
2023/11/14 15:31:11;;;;;;;3.95;1.40;;;;;;;;;;4897525;29;20024;-81
2023/11/14 15:33:57;;;;;;;2.95;1.10;;;;;;;;;;4903014;29;20458;-81
2023/11/14 15:36:42;;;;;;;2.38;1.23;;;;;;;;;;4905225;29;20364;-80
2023/11/14 15:39:27;;;;;;;3.90;1.23;;;;;;;;;;4903833;29;20044;-80
2023/11/14 15:42:12;;;;;;;4.20;1.27;;;;;;;;;;4905550;29;20478;-80
2023/11/14 15:44:58;;;;;;;7.03;1.23;;;;;;;;;;4907191;29;20062;-79
2023/11/14 15:47:44;;;;;;;3.67;1.20;;;;;;;;;;4908432;29;20060;-80
2023/11/14 15:50:29;;;;;;;5.43;2.28;;;;;;;;;;4908273;29;20040;-80
2023/11/14 15:53:14;;;;;;;4.00;1.10;;;;;;;;;;4903361;29;20040;-81
2023/11/14 15:55:59;;;;;;;3.53;1.35;;;;;;;;;;4885047;29;20058;-80
2023/11/14 15:58:46;;;;;;;1.90;1.58;;;;;;;;;;4897238;29;20028;-80
2023/11/14 16:01:31;;;;;;;3.15;0.98;;;;;;;;;;4903016;29;20043;-80
2023/11/14 16:04:16;;;;;;;3.30;1.42;;;;;;;;;;4901119;29;20112;-80
2023/11/14 16:07:02;;;;;;;4.13;1.50;;;;;;;;;;4905483;29;20459;-80
2023/11/14 16:09:47;;;;;;;2.85;1.20;;;;;;;;;;4906962;29;20403;-79
2023/11/14 16:12:32;;;;;;;3.15;1.00;;;;;;;;;;4893736;29;20067;-80
2023/11/14 16:15:18;;;;;;;1.90;1.05;;;;;;;;;;4906473;29;20035;-79
2023/11/14 16:18:04;;;;;;;3.40;1.10;;;;;;;;;;4906030;29;20438;-79
2023/11/14 16:20:51;;;;;;;3.13;1.02;;;;;;;;;;4906457;29;20058;-79
2023/11/14 16:23:36;;;;;;;2.30;1.20;;;;;;;;;;4908182;29;20235;-80
2023/11/14 16:26:22;;;;;;;4.10;1.25;;;;;;;;;;4902859;29;20052;-79
2023/11/14 16:29:08;;;;;;;1.65;1.00;;;;;;;;;;4903514;29;20230;-79
2023/11/14 16:31:56;;;;;;;3.85;1.52;;;;;;;;;;4900044;29;20031;-80